Time;durP1;ratioP1;P1;durP2;ratioP2;P2;SDS_P1;SDS_P2;PMS_P1;PMS_P2;Temp;Humidity;BMP_temperature;BMP_pressure;BME280_temperature;BME280_humidity;BME280_pressure;Samples;Min_cycle;Max_cycle;Signal;HPM_P1;HPM_P2
2024/02/24 00:03:43;;;;;;;3.53;3.23;;;0.80;99.90;;;1.39;100.00;96205.88;10381652;28;20231;-66
2024/02/24 00:08:47;;;;;;;3.40;3.10;;;0.80;99.90;;;1.46;100.00;96205.47;10385071;28;20235;-65
2024/02/24 00:13:50;;;;;;;4.30;3.80;;;0.80;99.90;;;1.53;100.00;96217.72;10383577;28;20370;-66
2024/02/24 00:18:55;;;;;;;4.77;3.43;;;0.80;99.90;;;1.43;100.00;96215.34;10381904;28;20279;-66
2024/02/24 00:24:00;;;;;;;5.30;4.10;;;0.80;99.90;;;1.39;100.00;96221.84;10383699;28;20237;-67
2024/02/24 00:29:03;;;;;;;4.43;3.70;;;0.80;99.90;;;1.44;100.00;96215.47;10383705;28;20235;-66
2024/02/24 00:34:06;;;;;;;3.30;3.00;;;0.80;99.90;;;1.45;100.00;96209.66;10380918;28;20235;-66
2024/02/24 00:39:11;;;;;;;2.90;2.70;;;0.80;99.90;;;1.49;100.00;96198.16;10382447;28;20240;-68
2024/02/24 00:44:16;;;;;;;3.37;3.10;;;0.80;99.90;;;1.40;100.00;96197.53;10383943;28;20234;-67
2024/02/24 00:49:20;;;;;;;3.10;2.90;;;0.80;99.90;;;1.49;100.00;96203.19;10383182;28;20235;-67
2024/02/24 00:54:24;;;;;;;2.70;2.50;;;0.80;99.90;;;1.44;100.00;96200.38;10384243;28;20229;-66
2024/02/24 00:59:27;;;;;;;3.40;3.10;;;0.80;99.90;;;1.43;100.00;96202.78;10381939;28;20599;-67
2024/02/24 01:04:31;;;;;;;4.13;3.20;;;0.70;99.90;;;1.38;100.00;96211.69;10383287;28;20223;-66
2024/02/24 01:09:35;;;;;;;3.53;3.20;;;0.70;99.90;;;1.35;100.00;96209.84;10382213;28;20333;-67
2024/02/24 01:14:39;;;;;;;4.30;3.93;;;0.60;99.90;;;1.28;100.00;96211.06;10379565;28;20239;-67
2024/02/24 01:19:42;;;;;;;4.43;4.00;;;0.60;99.90;;;1.22;100.00;96207.28;10382398;28;20232;-67
2024/02/24 01:24:46;;;;;;;3.93;3.67;;;0.50;99.90;;;1.17;100.00;96214.53;10383719;28;20232;-67
2024/02/24 01:29:49;;;;;;;3.87;3.57;;;0.50;99.90;;;1.13;100.00;96215.09;10383103;28;20227;-67
2024/02/24 01:34:53;;;;;;;3.13;2.90;;;0.50;99.90;;;1.11;100.00;96217.50;10382237;28;20288;-67
2024/02/24 01:39:57;;;;;;;2.93;2.73;;;0.50;99.90;;;1.11;100.00;96220.03;10384051;28;20236;-66
2024/02/24 01:45:01;;;;;;;3.27;3.03;;;0.50;99.90;;;1.07;100.00;96208.03;10383040;28;20231;-67
2024/02/24 01:50:05;;;;;;;3.20;3.00;;;0.50;99.90;;;1.12;100.00;96210.84;10391152;28;20266;-67
2024/02/24 01:55:11;;;;;;;3.03;2.70;;;0.50;99.90;;;1.16;100.00;96232.91;10391403;28;20237;-66
2024/02/24 02:00:15;;;;;;;3.40;3.10;;;0.60;99.90;;;1.15;100.00;96235.34;10389823;28;20233;-67
2024/02/24 02:05:18;;;;;;;2.80;2.60;;;0.50;99.90;;;1.11;100.00;96235.13;10388537;28;20239;-67
2024/02/24 02:10:23;;;;;;;3.60;3.07;;;0.50;99.90;;;1.07;100.00;96242.38;10388520;28;20248;-67
2024/02/24 02:15:26;;;;;;;3.90;3.60;;;0.40;99.90;;;1.00;100.00;96240.22;10389849;28;20229;-65
2024/02/24 02:20:29;;;;;;;3.50;3.30;;;0.40;99.90;;;0.94;100.00;96242.31;10386968;28;20234;-64
2024/02/24 02:25:33;;;;;;;3.83;3.50;;;0.30;99.90;;;0.96;100.00;96233.25;10387506;28;20315;-65
2024/02/24 02:30:37;;;;;;;3.90;3.03;;;0.30;99.90;;;0.92;100.00;96244.75;10388770;28;20729;-67
2024/02/24 02:35:40;;;;;;;3.47;3.20;;;0.30;99.90;;;0.95;100.00;96246.59;10387711;28;20778;-65
2024/02/24 02:40:44;;;;;;;5.83;2.90;;;0.30;99.90;;;1.00;100.00;96252.78;10390371;28;20300;-66
2024/02/24 02:45:47;;;;;;;3.67;2.87;;;0.40;99.90;;;1.04;100.00;96254.75;10388582;28;20232;-65
2024/02/24 02:50:51;;;;;;;2.60;2.40;;;0.40;99.90;;;1.00;100.00;96258.72;10390129;28;21062;-65
2024/02/24 02:55:55;;;;;;;3.03;2.63;;;0.40;99.90;;;0.99;100.00;96279.59;10388841;28;20743;-66
2024/02/24 03:00:58;;;;;;;4.20;2.57;;;0.30;99.90;;;0.95;100.00;96270.09;10384507;28;20704;-65
2024/02/24 03:06:02;;;;;;;3.80;3.47;;;0.30;99.90;;;0.95;100.00;96261.69;10387710;28;20625;-65
2024/02/24 03:11:15;;;;;;;3.53;3.30;;;0.30;99.90;;;0.85;100.00;96257.66;10384555;28;20259;-65
2024/02/24 03:16:18;;;;;;;2.83;2.63;;;0.20;99.90;;;0.64;100.00;96262.09;10388073;28;20228;-65
2024/02/24 03:21:26;;;;;;;3.73;2.53;;;0.00;99.90;;;0.65;100.00;96262.19;10387698;28;20632;-65
2024/02/24 03:26:30;;;;;;;3.47;2.80;;;0.00;99.90;;;0.57;100.00;96268.38;10384771;28;20221;-65
2024/02/24 03:31:33;;;;;;;2.80;2.60;;;0.00;99.90;;;0.61;100.00;96279.50;10385065;28;20232;-66
2024/02/24 03:36:36;;;;;;;2.40;2.30;;;0.00;99.90;;;0.58;100.00;96276.78;10384935;28;20252;-64
2024/02/24 03:41:41;;;;;;;2.50;2.40;;;0.00;99.90;;;0.64;100.00;96280.56;10386795;28;20275;-65
2024/02/24 03:46:44;;;;;;;3.43;3.03;;;0.00;99.90;;;0.51;100.00;96292.19;10383833;28;20237;-65
2024/02/24 03:51:47;;;;;;;3.57;3.30;;;-0.10;99.90;;;0.42;100.00;96285.75;10387801;28;20244;-65
2024/02/24 03:56:52;;;;;;;3.13;2.93;;;-0.20;99.90;;;0.22;100.00;96294.41;10385131;28;20221;-65
2024/02/24 04:01:55;;;;;;;3.20;3.00;;;-0.30;99.90;;;0.36;100.00;96295.38;10386705;28;20244;-65
2024/02/24 04:06:58;;;;;;;3.53;3.23;;;-0.20;99.90;;;0.32;100.00;96285.88;10381460;28;20228;-65
2024/02/24 04:12:03;;;;;;;3.47;3.27;;;-0.10;99.90;;;0.29;100.00;96285.69;10384566;28;20233;-65
2024/02/24 04:17:07;;;;;;;3.03;2.83;;;-0.20;99.90;;;0.36;100.00;96277.78;10382955;28;20226;-65
2024/02/24 04:22:10;;;;;;;3.47;3.17;;;-0.10;99.90;;;0.34;100.00;96285.97;10383281;28;20259;-65
2024/02/24 04:27:14;;;;;;;2.90;2.67;;;-0.10;99.90;;;0.45;100.00;96277.56;10384120;28;20244;-65
2024/02/24 04:32:18;;;;;;;3.43;3.23;;;0.00;99.90;;;0.45;100.00;96278.41;10380751;28;20230;-65
2024/02/24 04:37:21;;;;;;;4.07;3.77;;;0.00;99.90;;;0.40;100.00;96299.88;10384387;28;20683;-65
2024/02/24 04:42:26;;;;;;;3.00;2.80;;;0.00;99.90;;;0.37;100.00;96314.72;10384315;28;20232;-66
2024/02/24 04:47:29;;;;;;;3.83;3.53;;;-0.10;99.90;;;0.40;100.00;96322.47;10385357;28;20229;-65
2024/02/24 04:52:32;;;;;;;3.80;3.50;;;-0.10;99.90;;;0.48;100.00;96317.09;10383425;28;20236;-66
2024/02/24 04:57:37;;;;;;;3.70;3.40;;;0.00;99.90;;;0.47;100.00;96312.84;10383938;28;20225;-66
2024/02/24 05:02:40;;;;;;;5.40;3.77;;;0.00;99.90;;;0.61;100.00;96324.75;10379006;28;20234;-64
2024/02/24 05:07:43;;;;;;;4.07;3.67;;;0.00;99.90;;;0.64;100.00;96345.06;10382918;28;20240;-65
2024/02/24 05:12:48;;;;;;;3.33;3.13;;;0.10;99.90;;;0.63;100.00;96341.69;10378710;28;20236;-65
2024/02/24 05:17:51;;;;;;;3.40;3.20;;;0.10;99.90;;;0.67;100.00;96331.06;10383305;28;20221;-65
2024/02/24 05:22:54;;;;;;;3.73;3.43;;;0.20;99.90;;;0.73;100.00;96340.66;10387675;28;20240;-66
2024/02/24 05:27:59;;;;;;;4.10;3.80;;;0.20;99.90;;;0.72;100.00;96348.13;10389947;28;20242;-66
2024/02/24 05:33:02;;;;;;;3.57;3.27;;;0.20;99.90;;;0.73;100.00;96350.72;10387481;28;20217;-65
2024/02/24 05:38:05;;;;;;;4.30;3.90;;;0.20;99.90;;;0.77;100.00;96367.75;10390514;28;20226;-64
2024/02/24 05:43:10;;;;;;;4.40;4.00;;;0.30;99.90;;;0.99;100.00;96375.16;10387435;28;20599;-65
2024/02/24 05:48:13;;;;;;;4.30;3.93;;;0.50;99.90;;;0.89;100.00;96397.94;10388550;28;20296;-65
2024/02/24 05:53:16;;;;;;;3.50;3.33;;;0.40;99.90;;;1.06;100.00;96402.50;10387993;28;20737;-65
2024/02/24 05:58:21;;;;;;;3.80;3.50;;;0.50;99.90;;;1.16;100.00;96404.00;10387918;28;20302;-65
2024/02/24 06:03:25;;;;;;;4.47;4.17;;;0.70;99.90;;;1.34;100.00;96407.81;10389237;28;20238;-64
2024/02/24 06:08:29;;;;;;;3.33;3.13;;;0.70;99.90;;;1.20;100.00;96416.00;10389556;28;20658;-65
2024/02/24 06:13:33;;;;;;;5.37;4.87;;;0.60;99.90;;;1.21;100.00;96422.81;10388393;28;20256;-66
2024/02/24 06:18:36;;;;;;;6.70;5.20;;;0.60;99.90;;;1.29;100.00;96419.19;10387468;28;20305;-66
2024/02/24 06:23:40;;;;;;;5.77;5.27;;;0.70;99.90;;;1.31;100.00;96434.38;10382915;28;20232;-64
2024/02/24 06:28:44;;;;;;;4.40;4.00;;;0.70;99.90;;;1.21;100.00;96439.56;10384377;28;20236;-66
2024/02/24 06:33:48;;;;;;;5.23;4.73;;;0.60;99.90;;;1.21;100.00;96463.06;10378076;28;20227;-66
2024/02/24 06:38:51;;;;;;;3.73;3.40;;;0.70;99.90;;;1.39;100.00;96457.56;10379492;28;20711;-65
2024/02/24 06:43:55;;;;;;;5.07;4.67;;;0.90;99.90;;;1.62;100.00;96475.13;10383396;28;20247;-65
2024/02/24 06:48:58;;;;;;;4.03;3.73;;;1.10;99.90;;;1.80;100.00;96473.88;10380044;28;20238;-64
2024/02/24 06:54:02;;;;;;;4.50;4.10;;;1.20;99.90;;;1.76;100.00;96471.91;10384989;28;20276;-65
2024/02/24 06:59:06;;;;;;;20.70;16.80;;;1.20;99.90;;;1.96;100.00;96490.88;10382225;28;20232;-66
2024/02/24 07:04:10;;;;;;;10.13;8.93;;;1.30;99.90;;;2.12;100.00;96502.88;10381130;28;20233;-66
2024/02/24 07:09:14;;;;;;;8.17;5.90;;;1.50;99.90;;;2.43;100.00;96514.97;10380273;28;20721;-66
2024/02/24 07:14:20;;;;;;;5.93;5.43;;;1.60;99.90;;;2.39;100.00;96533.19;10384397;28;20233;-64
2024/02/24 07:19:23;;;;;;;7.43;6.33;;;1.60;99.90;;;2.25;100.00;96554.97;10380313;28;21330;-65
2024/02/24 07:24:27;;;;;;;9.57;8.67;;;1.60;99.90;;;2.30;100.00;96546.06;10380012;28;20781;-66
2024/02/24 07:29:31;;;;;;;6.93;6.23;;;1.70;99.90;;;2.30;100.00;96553.63;10392075;28;20829;-64
2024/02/24 07:34:34;;;;;;;7.77;7.03;;;1.70;99.90;;;2.45;100.00;96557.16;10381509;28;20705;-66
2024/02/24 07:39:38;;;;;;;7.30;6.60;;;1.90;99.90;;;2.44;100.00;96568.03;10381213;28;20240;-68
2024/02/24 07:44:42;;;;;;;7.63;6.90;;;1.90;99.90;;;2.39;100.00;96548.31;10385960;28;20234;-66
2024/02/24 07:49:45;;;;;;;6.13;5.53;;;1.90;99.90;;;2.56;100.00;96573.00;10384192;28;20245;-67
2024/02/24 07:54:50;;;;;;;6.83;6.23;;;2.10;99.90;;;2.46;100.00;96578.19;10382884;28;20232;-67
2024/02/24 07:59:55;;;;;;;7.50;6.83;;;2.00;99.90;;;2.63;100.00;96580.22;10386147;28;20632;-67
2024/02/24 08:04:58;;;;;;;5.30;4.80;;;2.20;99.90;;;2.81;100.00;96587.25;10383133;28;20233;-67
2024/02/24 08:10:01;;;;;;;4.43;4.13;;;2.30;99.90;;;2.98;100.00;96591.75;10386069;28;20241;-67
2024/02/24 08:15:08;;;;;;;4.13;3.80;;;2.50;99.90;;;3.25;100.00;96602.75;10389179;28;20227;-65
2024/02/24 08:20:12;;;;;;;4.80;4.50;;;2.80;99.90;;;3.53;100.00;96622.22;10389428;28;20237;-66
2024/02/24 08:25:16;;;;;;;3.83;3.23;;;3.10;99.90;;;3.71;100.00;96619.97;10397195;28;20225;-66
2024/02/24 08:30:20;;;;;;;6.50;5.90;;;3.30;99.90;;;3.85;100.00;96621.69;10390297;28;20236;-65
2024/02/24 08:35:24;;;;;;;8.83;7.20;;;3.20;99.90;;;3.71;100.00;96640.16;10390409;28;20294;-66
2024/02/24 08:40:27;;;;;;;9.87;7.73;;;3.10;99.90;;;3.79;100.00;96649.97;10392372;28;20613;-66
2024/02/24 08:45:31;;;;;;;15.60;11.70;;;3.10;99.90;;;3.64;100.00;96650.69;10392798;28;20229;-66
2024/02/24 08:50:34;;;;;;;11.33;10.07;;;3.10;99.90;;;3.56;100.00;96658.63;10389585;28;20774;-66
2024/02/24 08:55:38;;;;;;;11.20;8.47;;;3.00;99.90;;;3.54;100.00;96667.75;10389734;28;20230;-65
2024/02/24 09:00:43;;;;;;;9.70;8.70;;;3.10;99.90;;;3.77;100.00;96660.78;10387565;28;20415;-66
2024/02/24 09:05:46;;;;;;;7.73;7.07;;;3.30;99.90;;;4.10;100.00;96656.09;10381645;28;20256;-65
2024/02/24 09:10:52;;;;;;;6.30;4.83;;;3.70;99.90;;;4.83;100.00;96658.00;10384337;28;20758;-66
2024/02/24 09:15:57;;;;;;;5.30;4.90;;;4.40;99.90;;;5.19;100.00;96656.75;10381467;28;20233;-66
2024/02/24 09:21:00;;;;;;;6.80;6.00;;;4.80;99.90;;;5.68;100.00;96666.28;10381491;28;20229;-66
2024/02/24 09:26:04;;;;;;;7.30;6.70;;;5.10;99.90;;;5.94;100.00;96682.13;10371575;28;20242;-66
2024/02/24 09:31:09;;;;;;;5.77;5.27;;;5.30;99.90;;;6.14;100.00;96678.16;10378960;28;20225;-65
2024/02/24 09:36:12;;;;;;;4.70;4.30;;;5.50;99.90;;;6.48;99.48;96678.31;10384579;28;20277;-66
2024/02/24 09:41:18;;;;;;;4.73;4.33;;;6.00;99.90;;;6.64;97.39;96678.34;10382919;28;20333;-65
2024/02/24 09:46:23;;;;;;;3.30;3.07;;;6.20;99.90;;;6.85;93.32;96687.88;10379854;28;20233;-66
2024/02/24 09:51:27;;;;;;;2.10;2.00;;;6.40;99.90;;;7.22;84.09;96672.84;10382595;28;21021;-66
2024/02/24 09:56:31;;;;;;;1.80;1.70;;;6.70;99.90;;;7.63;81.77;96672.34;10381723;28;20230;-66
2024/02/24 10:01:37;;;;;;;1.93;1.80;;;7.30;99.90;;;8.07;80.64;96673.63;10381120;28;20423;-66
2024/02/24 10:06:42;;;;;;;1.50;1.50;;;7.80;99.90;;;8.55;77.82;96666.53;10383264;28;20222;-65
2024/02/24 10:11:45;;;;;;;1.60;1.50;;;8.30;99.90;;;8.88;74.93;96665.44;10388989;28;20229;-65
2024/02/24 10:16:52;;;;;;;1.80;1.70;;;8.60;99.90;;;8.96;69.51;96679.38;10387496;28;20705;-67
2024/02/24 10:21:55;;;;;;;1.53;1.43;;;8.60;99.90;;;9.33;70.31;96694.59;10387162;28;20232;-66
2024/02/24 10:26:58;;;;;;;1.10;1.10;;;9.10;99.90;;;9.71;67.84;96697.88;10389227;28;20232;-65
2024/02/24 10:32:03;;;;;;;1.30;1.30;;;9.40;99.90;;;9.65;62.07;96706.16;10395256;28;20234;-66
2024/02/24 10:37:07;;;;;;;1.20;1.20;;;9.20;99.90;;;9.70;61.40;96721.66;10392435;28;20225;-66
2024/02/24 10:42:11;;;;;;;1.40;1.30;;;9.20;99.90;;;9.81;61.38;96715.28;10394373;28;21017;-65
2024/02/24 10:47:16;;;;;;;1.50;1.40;;;9.50;99.90;;;9.98;60.48;96707.47;10391866;28;20236;-65
2024/02/24 10:52:20;;;;;;;2.07;1.97;;;9.60;99.90;;;9.97;57.96;96709.16;10393139;28;20268;-65
2024/02/24 10:57:24;;;;;;;1.80;1.70;;;9.60;99.90;;;10.01;59.43;96717.78;10395701;28;20572;-66
2024/02/24 11:02:30;;;;;;;1.52;1.23;;;9.50;99.90;;;10.25;58.39;96708.59;10391213;28;20221;-66
2024/02/24 11:07:33;;;;;;;1.25;1.15;;;9.70;99.90;;;10.29;55.93;96715.56;10390357;28;20225;-66
2024/02/24 11:12:37;;;;;;;1.13;1.13;;;9.70;99.90;;;10.41;56.38;96699.84;10392842;28;20611;-66
2024/02/24 11:17:51;;;;;;;1.30;1.30;;;9.80;99.90;;;10.52;56.49;96697.72;10386807;28;20253;-65
2024/02/24 11:23:18;;;;;;;1.67;1.58;;;9.80;99.90;;;10.83;56.71;96684.41;10390152;28;20240;-66
2024/02/24 11:28:23;;;;;;;1.30;1.20;;;10.30;99.90;;;11.11;54.62;96693.97;10390558;28;20224;-66
2024/02/24 11:33:30;;;;;;;1.70;1.40;;;10.50;99.90;;;10.98;54.74;96684.09;10395906;28;20248;-66
2024/02/24 11:38:34;;;;;;;1.27;1.20;;;10.30;99.90;;;11.06;54.89;96705.69;10392222;28;20591;-66
2024/02/24 11:43:37;;;;;;;1.10;1.10;;;10.30;99.90;;;11.30;54.68;96699.72;10394041;28;20375;-65
2024/02/24 11:48:42;;;;;;;1.58;1.48;;;10.70;99.90;;;11.27;53.45;96706.47;10383555;28;20603;-66
2024/02/24 11:53:46;;;;;;;1.60;1.50;;;10.50;99.10;;;11.04;51.94;96697.09;10384006;28;20233;-65
2024/02/24 11:58:50;;;;;;;1.77;1.42;;;10.60;97.20;;;11.21;52.68;96697.69;10385349;28;20248;-68
2024/02/24 12:03:57;;;;;;;1.45;1.40;;;10.80;97.90;;;11.29;50.84;96693.72;10388948;28;20320;-66
2024/02/24 12:09:01;;;;;;;1.50;1.40;;;10.90;96.30;;;11.32;50.96;96682.75;10390507;28;20233;-68
2024/02/24 12:14:04;;;;;;;1.17;1.00;;;11.00;96.30;;;11.46;49.59;96674.72;10392987;28;20264;-69
2024/02/24 12:19:09;;;;;;;1.30;1.20;;;11.10;95.40;;;11.36;47.91;96693.16;10389468;28;20345;-66
2024/02/24 12:24:13;;;;;;;1.42;1.33;;;11.00;93.50;;;11.21;48.81;96677.25;10389446;28;20237;-68
2024/02/24 12:29:16;;;;;;;1.40;1.30;;;10.70;93.90;;;11.18;49.81;96678.00;10387625;28;20236;-68
2024/02/24 12:34:22;;;;;;;1.30;1.30;;;10.70;94.70;;;11.14;49.38;96682.97;10388711;28;20324;-67
2024/02/24 12:39:25;;;;;;;1.23;1.23;;;10.80;93.90;;;11.19;47.66;96684.88;10390593;28;20241;-68
2024/02/24 12:44:30;;;;;;;1.40;1.30;;;10.80;92.40;;;11.11;48.12;96690.53;10392013;28;20226;-66
2024/02/24 12:49:34;;;;;;;1.42;1.42;;;10.80;93.20;;;11.27;48.13;96696.25;10387558;28;20237;-66
2024/02/24 12:54:38;;;;;;;1.23;1.13;;;10.70;93.60;;;11.17;48.34;96691.63;10391433;28;20809;-66
2024/02/24 12:59:41;;;;;;;1.35;1.23;;;10.80;92.60;;;11.28;47.76;96692.88;10414354;22;20217;-67
2024/02/24 13:04:46;;;;;;;1.50;1.40;;;10.70;92.80;;;11.35;47.54;96699.06;10405908;28;20229;-67
2024/02/24 13:09:49;;;;;;;1.10;1.10;;;10.70;93.00;;;11.42;47.62;96692.50;10411961;28;20233;-67
2024/02/24 13:14:52;;;;;;;1.20;1.20;;;10.70;93.80;;;11.58;48.08;96704.09;10417060;28;20336;-67
2024/02/24 13:19:57;;;;;;;1.60;1.50;;;10.90;93.40;;;11.62;46.33;96698.28;10412866;28;20315;-67
2024/02/24 13:25:00;;;;;;;0.95;0.95;;;11.10;91.50;;;11.60;45.82;96688.00;10417122;28;20567;-67
2024/02/24 13:30:05;;;;;;;1.30;1.30;;;11.00;91.30;;;11.59;45.24;96691.38;10418147;28;20236;-68
2024/02/24 13:35:10;;;;;;;1.70;1.60;;;10.90;91.10;;;11.53;45.32;96696.25;10401035;28;20222;-67
2024/02/24 13:40:13;;;;;;;1.10;1.10;;;10.80;91.00;;;11.41;44.70;96704.38;10393055;28;20225;-67
2024/02/24 13:45:17;;;;;;;1.10;1.10;;;10.90;90.20;;;11.58;44.60;96709.22;10400399;28;20317;-67
2024/02/24 13:50:22;;;;;;;1.20;1.20;;;11.10;89.70;;;11.51;45.17;96703.03;10404997;28;20226;-67
2024/02/24 13:55:26;;;;;;;1.23;1.20;;;11.00;90.30;;;11.50;44.64;96706.38;10405773;28;20571;-67
2024/02/24 14:00:29;;;;;;;0.95;0.95;;;11.00;89.60;;;11.34;45.29;96720.34;10396392;28;20245;-67
2024/02/24 14:05:35;;;;;;;1.23;1.20;;;10.60;90.40;;;11.23;45.86;96725.06;10385804;28;20241;-67
2024/02/24 14:10:39;;;;;;;1.40;1.27;;;10.70;90.90;;;11.32;45.30;96736.47;10392288;28;20229;-67
2024/02/24 14:15:46;;;;;;;1.10;1.10;;;10.70;90.40;;;11.11;46.44;96732.31;10395828;28;20229;-67
2024/02/24 14:20:51;;;;;;;1.17;1.15;;;10.30;91.60;;;10.91;48.60;96739.25;10393083;28;20263;-67
2024/02/24 14:25:54;;;;;;;1.00;1.00;;;10.20;92.80;;;10.93;47.24;96749.50;10388786;28;20236;-67
2024/02/24 14:30:57;;;;;;;1.08;1.08;;;10.30;91.80;;;11.00;48.98;96749.81;10392254;28;20222;-67
2024/02/24 14:36:02;;;;;;;1.35;1.25;;;10.30;93.50;;;11.10;48.45;96761.25;10395882;28;20268;-67
2024/02/24 14:41:05;;;;;;;1.50;1.50;;;10.10;93.80;;;11.34;46.91;96757.84;10396529;28;20217;-67
2024/02/24 14:46:08;;;;;;;1.40;1.30;;;10.60;92.20;;;11.29;46.44;96762.78;10397084;28;20260;-68
2024/02/24 14:51:13;;;;;;;1.42;1.33;;;10.60;91.70;;;10.87;48.49;96762.06;10393537;28;20337;-67
2024/02/24 14:56:16;;;;;;;1.10;1.10;;;10.20;93.10;;;10.91;49.16;96761.38;10391534;28;20235;-67
2024/02/24 15:01:20;;;;;;;1.17;1.08;;;10.10;93.90;;;10.90;48.01;96759.63;10388021;28;20572;-67
2024/02/24 15:06:24;;;;;;;1.55;1.42;;;10.10;93.40;;;10.88;47.15;96757.03;10381976;28;20234;-67
2024/02/24 15:11:28;;;;;;;1.67;1.58;;;10.00;92.70;;;10.63;50.65;96752.66;10384285;28;20225;-67
2024/02/24 15:16:31;;;;;;;1.58;1.48;;;9.80;94.70;;;10.45;50.38;96759.63;10382000;28;20233;-67
2024/02/24 15:21:36;;;;;;;1.55;1.55;;;9.60;94.90;;;10.37;50.38;96762.72;10381884;28;20240;-67
2024/02/24 15:26:42;;;;;;;1.88;1.77;;;9.50;95.60;;;10.17;52.07;96766.13;10381117;28;20585;-67
2024/02/24 15:31:45;;;;;;;1.85;1.85;;;9.30;95.90;;;10.10;51.77;96765.00;10382578;28;20233;-67
2024/02/24 15:36:50;;;;;;;1.45;1.35;;;9.30;96.10;;;10.03;52.49;96772.34;10384346;28;20226;-67
2024/02/24 15:41:53;;;;;;;1.83;1.30;;;9.20;96.20;;;9.92;53.32;96780.41;10385148;28;20229;-67
2024/02/24 15:46:56;;;;;;;1.80;1.70;;;9.10;97.30;;;9.79;54.11;96784.97;10381435;28;20307;-67
2024/02/24 15:52:00;;;;;;;1.90;1.80;;;9.00;97.80;;;9.73;54.09;96787.22;10381972;28;20233;-67
2024/02/24 15:57:04;;;;;;;1.65;1.55;;;8.90;98.40;;;9.73;55.02;96798.34;10377933;28;20264;-67
2024/02/24 16:02:07;;;;;;;2.00;1.75;;;8.80;99.90;;;9.76;55.68;96821.44;10377998;28;20791;-67
2024/02/24 16:07:12;;;;;;;2.67;1.88;;;8.80;99.90;;;9.76;55.52;96857.16;10381038;28;20242;-67
2024/02/24 16:12:15;;;;;;;2.22;2.10;;;8.90;99.90;;;9.74;56.73;96897.03;10383157;28;20225;-67
2024/02/24 16:17:21;;;;;;;2.58;2.38;;;8.90;99.90;;;9.08;70.35;96933.94;10385798;28;20233;-67
2024/02/24 16:22:26;;;;;;;1.77;1.67;;;8.50;99.90;;;8.29;78.07;96941.91;10390303;28;21116;-67
2024/02/24 16:27:29;;;;;;;1.80;1.70;;;7.70;99.90;;;7.51;86.11;96943.78;10389423;28;20727;-67
2024/02/24 16:32:32;;;;;;;1.97;1.70;;;6.90;99.90;;;7.41;86.79;96966.94;10389318;28;20664;-67
2024/02/24 16:37:38;;;;;;;1.70;1.60;;;6.90;99.90;;;7.04;87.48;96980.19;10389902;28;20233;-67
2024/02/24 16:42:41;;;;;;;1.50;1.50;;;6.80;99.90;;;6.79;90.03;96966.88;10392406;28;20221;-67
2024/02/24 16:47:45;;;;;;;2.20;2.10;;;6.40;99.90;;;6.26;93.25;96946.09;10386214;28;20236;-67
2024/02/24 16:52:49;;;;;;;1.87;1.80;;;5.90;99.90;;;6.21;95.39;96939.00;10391074;28;20586;-67
2024/02/24 16:57:53;;;;;;;51.63;31.97;;;5.70;99.90;;;6.16;95.17;96941.28;10389365;28;20245;-67
2024/02/24 17:02:56;;;;;;;7.07;5.40;;;5.70;99.90;;;5.82;97.52;96951.91;10385576;28;20316;-66
2024/02/24 17:08:00;;;;;;;5.00;4.70;;;5.50;99.90;;;5.63;98.63;96961.72;10388713;28;20229;-66
2024/02/24 17:13:04;;;;;;;2.27;2.17;;;5.30;99.90;;;5.69;94.14;96957.00;10389773;28;20333;-66
2024/02/24 17:18:08;;;;;;;3.10;2.90;;;5.20;99.90;;;5.60;95.83;96953.91;10395879;28;20303;-67
2024/02/24 17:23:21;;;;;;;4.17;3.70;;;5.10;99.90;;;5.29;98.54;96964.69;10396328;28;20226;-66
2024/02/24 17:28:25;;;;;;;2.50;2.40;;;4.90;99.90;;;5.23;98.97;96971.91;10398808;28;20626;-66
2024/02/24 17:33:28;;;;;;;2.67;2.57;;;4.70;99.90;;;5.12;99.19;96968.72;10395895;28;20230;-66
2024/02/24 17:38:32;;;;;;;5.60;5.13;;;4.60;99.90;;;5.10;100.00;96982.06;10397417;28;20230;-66
2024/02/24 17:43:35;;;;;;;3.50;3.30;;;4.60;99.90;;;5.08;100.00;96983.59;10404645;28;20314;-66
2024/02/24 17:48:38;;;;;;;2.03;1.93;;;4.50;99.90;;;4.89;100.00;97002.69;10394284;28;20232;-66
2024/02/24 17:53:43;;;;;;;2.90;2.70;;;4.40;99.90;;;4.92;100.00;96992.78;10402202;28;20217;-66
2024/02/24 17:58:47;;;;;;;2.40;2.27;;;4.40;99.90;;;5.02;100.00;96999.28;10398455;28;20921;-66
2024/02/24 18:03:50;;;;;;;2.20;2.10;;;4.40;99.90;;;4.94;100.00;97003.84;10398551;28;20447;-66
2024/02/24 18:08:54;;;;;;;4.20;3.83;;;4.40;99.90;;;4.86;100.00;96999.94;10397214;28;20240;-66
2024/02/24 18:13:58;;;;;;;4.40;3.87;;;4.30;99.90;;;4.79;100.00;97010.47;10398200;28;22088;-66
2024/02/24 18:19:04;;;;;;;2.47;2.37;;;4.30;99.90;;;4.86;100.00;97007.53;10392618;28;20226;-66
2024/02/24 18:24:09;;;;;;;2.97;2.77;;;4.30;99.90;;;4.84;100.00;97011.66;10394838;28;20234;-67
2024/02/24 18:29:12;;;;;;;4.87;4.47;;;4.30;99.90;;;4.81;100.00;97013.06;10382544;28;20756;-66
2024/02/24 18:34:16;;;;;;;4.43;4.10;;;4.30;99.90;;;4.93;100.00;97018.97;10379951;28;20769;-66
2024/02/24 18:39:21;;;;;;;3.97;3.67;;;4.40;99.90;;;4.95;100.00;97013.22;10389004;28;20695;-66
2024/02/24 18:44:24;;;;;;;3.17;2.93;;;4.40;99.90;;;4.82;100.00;97015.72;10385370;28;20237;-66
2024/02/24 18:49:28;;;;;;;3.30;3.00;;;4.30;99.90;;;4.69;100.00;97013.16;10380880;28;20238;-66
2024/02/24 18:54:33;;;;;;;5.30;4.90;;;4.10;99.90;;;4.77;100.00;97006.06;10383010;28;20572;-66
2024/02/24 18:59:36;;;;;;;3.83;3.50;;;4.30;99.90;;;5.00;100.00;97005.03;10378700;28;20854;-66
2024/02/24 19:04:41;;;;;;;3.70;3.50;;;4.30;99.90;;;4.81;100.00;97008.91;10374358;28;20556;-66
2024/02/24 19:09:46;;;;;;;4.17;3.97;;;4.20;99.90;;;4.84;100.00;97014.19;10379631;28;20715;-66
2024/02/24 19:14:51;;;;;;;4.53;4.13;;;4.20;99.90;;;4.88;100.00;97000.94;10377655;28;20226;-66
2024/02/24 19:20:00;;;;;;;4.87;4.40;;;4.20;99.90;;;4.67;100.00;97009.66;10378279;28;20240;-66
2024/02/24 19:25:05;;;;;;;4.67;4.33;;;4.10;99.90;;;4.86;100.00;97016.78;10372622;28;20753;-66
2024/02/24 19:30:10;;;;;;;5.33;4.83;;;4.10;99.90;;;4.67;100.00;97013.06;10369802;28;20725;-66
2024/02/24 19:35:13;;;;;;;6.03;5.53;;;4.10;99.90;;;4.55;100.00;97018.97;10372136;28;20230;-66
2024/02/24 19:40:18;;;;;;;6.13;5.57;;;4.00;99.90;;;4.39;100.00;97010.38;10368511;28;20661;-66
2024/02/24 19:45:21;;;;;;;6.47;5.87;;;3.90;99.90;;;4.54;100.00;97019.75;10366927;28;20233;-66
2024/02/24 19:50:26;;;;;;;6.53;6.03;;;4.00;99.90;;;4.50;100.00;97011.97;10373248;28;22519;-66
2024/02/24 19:55:31;;;;;;;6.53;6.03;;;3.90;99.90;;;4.48;100.00;97013.50;10364170;28;20324;-66
2024/02/24 20:00:35;;;;;;;6.07;5.70;;;4.00;99.90;;;4.62;100.00;97018.59;10363353;28;20230;-66
2024/02/24 20:05:39;;;;;;;6.50;6.10;;;4.00;99.90;;;4.51;100.00;97016.22;10368597;28;20819;-66
2024/02/24 20:10:44;;;;;;;7.20;6.67;;;3.90;99.90;;;4.22;100.00;97018.47;10363729;28;20233;-67
2024/02/24 20:15:48;;;;;;;9.70;8.80;;;3.70;99.90;;;4.10;100.00;97022.72;10368121;28;20308;-66
2024/02/24 20:20:51;;;;;;;12.50;11.17;;;3.70;99.90;;;4.13;100.00;97010.28;10371677;28;20232;-66
2024/02/24 20:25:56;;;;;;;7.40;6.80;;;3.60;99.90;;;4.06;100.00;97009.88;10383298;28;20244;-66
2024/02/24 20:30:59;;;;;;;11.30;10.30;;;3.60;99.90;;;4.05;100.00;97012.28;10371520;28;20222;-66
2024/02/24 20:36:05;;;;;;;7.40;6.70;;;3.50;99.90;;;4.02;100.00;97020.53;10367686;28;21099;-67
2024/02/24 20:41:10;;;;;;;8.53;7.73;;;3.50;99.90;;;3.92;100.00;97023.22;10368384;28;20239;-66
2024/02/24 20:46:13;;;;;;;6.57;6.07;;;3.40;99.90;;;3.88;100.00;97016.16;10368853;28;20229;-66
2024/02/24 20:51:17;;;;;;;5.70;5.30;;;3.40;99.90;;;3.79;100.00;97021.47;10365775;28;20225;-66
2024/02/24 20:56:21;;;;;;;8.77;8.07;;;3.30;99.90;;;3.87;100.00;97016.97;10361628;28;20251;-66
2024/02/24 21:01:26;;;;;;;8.07;7.40;;;3.30;99.90;;;3.91;100.00;97018.91;10358103;28;22018;-66
2024/02/24 21:06:30;;;;;;;8.00;7.30;;;3.40;99.90;;;3.81;100.00;97014.88;10361653;28;20328;-66
2024/02/24 21:11:34;;;;;;;4.90;4.50;;;3.30;99.90;;;3.97;100.00;97018.44;10364914;28;20255;-66
2024/02/24 21:16:38;;;;;;;7.00;6.50;;;3.30;99.90;;;3.82;100.00;97013.22;10362146;28;21875;-66